Time;durP1;ratioP1;P1;durP2;ratioP2;P2;SDS_P1;SDS_P2;PMS_P1;PMS_P2;Temp;Humidity;BMP_temperature;BMP_pressure;BME280_temperature;BME280_humidity;BME280_pressure;Samples;Min_cycle;Max_cycle;Signal;HPM_P1;HPM_P2
2021/12/13 00:01:38;;;;;;;11.82;4.47;;;;;;;10.08;100.00;102245.53;5091661;28;20031;-55
2021/12/13 00:04:05;;;;;;;11.73;4.40;;;;;;;10.05;100.00;102265.72;5091951;28;20032;-52
2021/12/13 00:06:35;;;;;;;12.82;4.50;;;;;;;10.01;100.00;102262.22;5093886;28;20124;-56
2021/12/13 00:09:06;;;;;;;12.48;5.30;;;;;;;9.95;100.00;102262.28;5096001;28;20028;-54
2021/12/13 00:11:34;;;;;;;15.35;5.45;;;;;;;9.85;100.00;102257.97;5095864;28;20024;-57
2021/12/13 00:14:14;;;;;;;16.20;5.63;;;;;;;9.93;100.00;102268.44;5060867;28;20032;-58
2021/12/13 00:16:44;;;;;;;13.95;5.78;;;;;;;9.58;100.00;102209.06;5095563;28;20119;-59
2021/12/13 00:19:17;;;;;;;14.07;5.25;;;;;;;9.92;100.00;102278.13;5078170;28;20108;-57
2021/12/13 00:21:46;;;;;;;12.75;5.53;;;;;;;9.54;100.00;102204.72;5095721;28;20081;-55
2021/12/13 00:24:33;;;;;;;14.32;5.65;;;;;;;9.86;100.00;102257.13;5095431;28;20031;-58
2021/12/13 00:27:02;;;;;;;16.40;6.30;;;;;;;9.88;100.00;102270.22;5095688;28;20071;-58
2021/12/13 00:29:33;;;;;;;15.38;5.10;;;;;;;9.72;100.00;102239.69;5095228;28;20040;-56
2021/12/13 00:32:19;;;;;;;8.02;4.72;;;;;;;9.87;100.00;102266.72;5077431;28;20036;-58
2021/12/13 00:34:59;;;;;;;11.50;5.15;;;;;;;9.61;100.00;102224.84;5095397;28;20126;-51
2021/12/13 00:37:39;;;;;;;13.30;6.47;;;;;;;9.82;100.00;102263.25;5095496;28;20051;-56
2021/12/13 00:40:26;;;;;;;10.52;4.38;;;;;;;9.81;100.00;102271.16;5077237;28;20024;-55
2021/12/13 00:43:01;;;;;;;12.43;4.38;;;;;;;9.49;100.00;102214.38;5095227;28;20106;-53
2021/12/13 00:45:32;;;;;;;8.48;4.78;;;;;;;9.74;100.00;102272.09;5095001;28;20111;-57
2021/12/13 00:48:01;;;;;;;8.85;4.35;;;;;;;9.65;100.00;102272.13;5094940;28;20441;-55
2021/12/13 00:50:36;;;;;;;9.50;4.43;;;;;;;9.23;100.00;102210.16;5095242;28;20035;-55
2021/12/13 00:53:03;;;;;;;16.17;4.70;;;;;;;9.17;100.00;102204.94;5060340;28;20032;-52
2021/12/13 00:55:30;;;;;;;10.93;4.05;;;;;;;9.55;100.00;102287.06;5095108;28;20043;-57
2021/12/13 00:58:14;;;;;;;10.52;4.53;;;;;;;9.61;100.00;102282.66;5076732;28;20115;-58
2021/12/13 01:00:43;;;;;;;13.43;4.32;;;;;;;9.65;100.00;102285.28;5076651;28;20406;-57
2021/12/13 01:03:11;;;;;;;8.00;3.50;;;;;;;9.68;100.00;102286.16;5095064;28;20080;-56
2021/12/13 01:06:10;;;;;;;6.65;3.42;;;;;;;9.69;100.00;102289.66;5094876;28;20111;-57
2021/12/13 01:08:53;;;;;;;6.97;3.20;;;;;;;9.71;100.00;102285.25;5094587;28;20118;-56
2021/12/13 01:11:32;;;;;;;11.27;3.58;;;;;;;9.76;100.00;102292.22;5076351;28;20032;-58
2021/12/13 01:14:07;;;;;;;8.65;3.40;;;;;;;9.69;100.00;102276.50;5094661;28;20046;-56
2021/12/13 01:16:51;;;;;;;8.30;2.47;;;;;;;9.78;100.00;102298.34;5094346;28;20067;-56
2021/12/13 01:19:32;;;;;;;10.52;2.90;;;;;;;9.55;100.00;102248.53;5093965;28;20024;-54
2021/12/13 01:22:34;;;;;;;9.23;2.37;;;;;;;9.81;100.00;102289.56;5094674;28;20034;-56
2021/12/13 01:25:18;;;;;;;6.38;2.40;;;;;;;9.76;100.00;102283.47;5094420;28;20284;-56
2021/12/13 01:27:52;;;;;;;5.07;2.33;;;;;;;9.48;100.00;102231.06;5094339;28;20378;-59
2021/12/13 01:30:24;;;;;;;7.90;2.60;;;;;;;9.85;100.00;102296.56;5094537;28;20103;-56
2021/12/13 01:32:55;;;;;;;7.30;2.95;;;;;;;9.48;100.00;102238.06;5076289;28;20027;-56
2021/12/13 01:35:26;;;;;;;8.65;2.83;;;;;;;9.77;100.00;102285.22;5076279;28;20028;-56
2021/12/13 01:37:53;;;;;;;;;;;;;;;9.86;100.00;102293.94;5094546;28;20052;-54
2021/12/13 01:40:25;;;;;;;6.65;2.75;;;;;;;9.85;100.00;102309.69;5076328;28;19922;-53
2021/12/13 01:42:59;;;;;;;8.85;2.90;;;;;;;9.86;100.00;102300.94;5094269;28;20074;-56
2021/12/13 01:45:26;;;;;;;5.57;2.83;;;;;;;9.83;100.00;102304.47;5093656;28;20035;-57
2021/12/13 01:47:53;;;;;;;6.47;2.80;;;;;;;9.54;100.00;102257.28;5094091;28;20028;-55
2021/12/13 01:50:36;;;;;;;8.25;3.67;;;;;;;9.66;100.00;102287.03;5066227;28;20040;-57
2021/12/13 01:53:01;;;;;;;6.90;3.67;;;;;;;9.51;100.00;102262.59;5073611;28;20028;-51
2021/12/13 01:55:39;;;;;;;4.30;3.33;;;;;;;9.72;100.00;102292.25;5073670;28;20024;-53
2021/12/13 01:58:36;;;;;;;5.35;3.50;;;;;;;9.68;100.00;102290.53;5055622;28;20036;-55
2021/12/13 02:01:19;;;;;;;7.50;3.78;;;;;;;9.77;100.00;102314.13;5088004;28;20036;-56
2021/12/13 02:04:04;;;;;;;6.55;3.80;;;;;;;9.41;100.00;102246.84;5093969;28;20024;-54
2021/12/13 02:06:43;;;;;;;10.55;3.70;;;;;;;9.77;100.00;102301.00;5093604;28;20451;-56
2021/12/13 02:09:27;;;;;;;4.78;3.53;;;;;;;9.41;100.00;102249.47;5093488;28;20055;-58
2021/12/13 02:11:57;;;;;;;6.22;3.45;;;;;;;9.43;100.00;102258.22;5093746;28;20032;-54
2021/12/13 02:14:28;;;;;;;11.18;3.60;;;;;;;9.78;100.00;102315.91;5093655;28;20490;-56
2021/12/13 02:17:08;;;;;;;7.32;3.88;;;;;;;9.79;100.00;102323.75;5093510;28;20131;-57
2021/12/13 02:19:53;;;;;;;9.32;3.70;;;;;;;9.82;100.00;102318.50;5074013;28;20391;-57
2021/12/13 02:22:38;;;;;;;7.28;3.55;;;;;;;9.42;100.00;102251.25;5073131;28;20040;-54
2021/12/13 02:25:33;;;;;;;7.43;3.45;;;;;;;9.79;100.00;102320.25;5073366;28;20035;-54
2021/12/13 02:28:05;;;;;;;5.85;3.50;;;;;;;9.70;100.00;102309.78;5083693;28;20114;-54
2021/12/13 02:30:39;;;;;;;9.65;4.10;;;;;;;9.65;100.00;102301.06;5081111;28;20035;-55
2021/12/13 02:33:07;;;;;;;9.95;3.95;;;;;;;9.72;100.00;102339.59;5072857;28;20032;-53
2021/12/13 02:35:37;;;;;;;8.63;4.32;;;;;;;9.63;100.00;102319.50;5072726;28;20484;-54
2021/12/13 02:38:04;;;;;;;11.32;4.85;;;;;;;9.69;100.00;102324.69;5072624;28;20106;-53
2021/12/13 02:40:30;;;;;;;8.07;5.18;;;;;;;9.35;100.00;102274.03;5082755;28;20066;-52
2021/12/13 02:42:56;;;;;;;9.95;5.13;;;;;;;9.29;100.00;102260.06;5092989;28;20114;-55
2021/12/13 02:45:29;;;;;;;8.20;5.57;;;;;;;9.65;100.00;102327.34;5092853;28;20032;-50
2021/12/13 02:48:26;;;;;;;8.18;5.68;;;;;;;9.61;100.00;102322.09;5091792;28;20038;-57
2021/12/13 02:51:36;;;;;;;10.98;6.28;;;;;;;9.52;100.00;102313.38;5075249;28;20025;-52
2021/12/13 02:54:09;;;;;;;9.00;6.13;;;;;;;9.27;100.00;102277.59;4990794;28;20030;-55
2021/12/13 02:56:45;;;;;;;10.13;7.53;;;;;;;9.55;100.00;102318.63;4991033;28;20041;-52
2021/12/13 02:59:11;;;;;;;14.02;7.25;;;;;;;9.27;100.00;102264.44;5040320;28;20166;-56
2021/12/13 03:01:40;;;;;;;9.25;7.40;;;;;;;9.21;100.00;102262.72;5092527;28;20395;-55
2021/12/13 03:04:10;;;;;;;10.60;8.00;;;;;;;9.53;100.00;102316.00;5092715;28;20051;-56
2021/12/13 03:06:41;;;;;;;11.45;8.80;;;;;;;9.56;100.00;102313.38;5092566;28;20032;-56
2021/12/13 03:09:11;;;;;;;14.40;8.07;;;;;;;9.51;100.00;102304.66;5087591;28;20032;-53
2021/12/13 03:11:36;;;;;;;15.05;9.13;;;;;;;9.51;100.00;102304.66;5054450;28;20362;-54
2021/12/13 03:14:10;;;;;;;13.10;9.32;;;;;;;9.50;100.00;102310.78;5072768;28;20119;-58
2021/12/13 03:17:05;;;;;;;13.07;9.60;;;;;;;9.51;100.00;102309.03;5072173;28;20070;-55
2021/12/13 03:19:39;;;;;;;11.52;9.68;;;;;;;9.47;100.00;102305.53;5080235;28;20032;-63
2021/12/13 03:22:30;;;;;;;12.85;9.73;;;;;;;9.46;100.00;102305.53;5092359;28;20114;-55
2021/12/13 03:25:05;;;;;;;13.85;9.98;;;;;;;9.48;100.00;102306.41;5092412;28;20024;-56
2021/12/13 03:28:12;;;;;;;15.32;10.85;;;;;;;9.58;100.00;102301.09;5092403;28;20391;-57
2021/12/13 03:30:56;;;;;;;14.52;10.65;;;;;;;9.53;100.00;102299.38;5042416;28;20045;-55
2021/12/13 03:33:31;;;;;;;15.50;10.45;;;;;;;9.32;100.00;102253.03;5070739;28;20090;-56
2021/12/13 03:36:00;;;;;;;12.93;10.85;;;;;;;9.57;100.00;102304.59;5071785;28;20032;-53
2021/12/13 03:38:33;;;;;;;12.07;10.52;;;;;;;9.61;100.00;102300.19;5072736;28;20040;-54
2021/12/13 03:41:03;;;;;;;11.48;10.27;;;;;;;9.40;100.00;102259.13;5093423;28;20115;-56
2021/12/13 03:43:40;;;;;;;14.95;10.50;;;;;;;9.36;100.00;102246.03;5096280;28;20039;-56
2021/12/13 03:46:08;;;;;;;15.13;10.93;;;;;;;9.71;100.00;102308.91;5096328;28;20510;-55
2021/12/13 03:48:36;;;;;;;11.48;9.73;;;;;;;9.01;100.00;102199.78;5094342;28;20039;-56
2021/12/13 03:51:07;;;;;;;11.50;10.07;;;;;;;9.58;100.00;102260.78;5058004;28;20032;-57
2021/12/13 03:53:35;;;;;;;11.55;9.23;;;;;;;9.66;100.00;102279.16;5075751;28;20036;-53
2021/12/13 03:56:07;;;;;;;11.57;9.73;;;;;;;9.46;100.00;102248.56;5058018;28;20094;-54
2021/12/13 03:58:37;;;;;;;12.50;9.65;;;;;;;9.70;100.00;102297.50;5075529;28;20511;-58
2021/12/13 04:01:10;;;;;;;10.93;8.45;;;;;;;9.72;100.00;102297.53;5094246;28;20040;-54
2021/12/13 04:03:36;;;;;;;11.30;9.27;;;;;;;9.73;100.00;102308.03;5061202;28;20036;-57
2021/12/13 04:06:02;;;;;;;9.70;8.73;;;;;;;9.70;100.00;102297.50;5075917;28;20418;-53
2021/12/13 04:08:27;;;;;;;9.30;8.40;;;;;;;9.72;100.00;102290.47;5075711;28;20032;-58
2021/12/13 04:11:01;;;;;;;9.52;8.57;;;;;;;9.42;100.00;102246.88;5075541;28;20074;-55
2021/12/13 04:13:31;;;;;;;14.52;8.45;;;;;;;9.71;100.00;102303.66;5075530;28;20032;-55
2021/12/13 04:16:06;;;;;;;8.65;7.85;;;;;;;9.70;100.00;102296.63;5075408;28;20036;-54
2021/12/13 04:21:23;;;;;;;11.55;8.40;;;;;;;9.65;100.00;102294.06;5074518;28;20036;-57
2021/12/13 04:23:55;;;;;;;8.63;7.75;;;;;;;9.31;100.00;102246.03;5073146;28;20033;-58
2021/12/13 04:26:22;;;;;;;9.43;7.60;;;;;;;9.63;100.00;102291.41;5074377;28;20044;-57
2021/12/13 04:28:50;;;;;;;11.63;7.82;;;;;;;9.68;100.00;102307.19;5057108;28;20119;-54
2021/12/13 04:31:19;;;;;;;13.15;8.30;;;;;;;9.58;100.00;102290.56;5075332;28;20051;-54
2021/12/13 04:33:52;;;;;;;10.50;7.90;;;;;;;9.65;100.00;102296.69;5074074;28;20040;-51
2021/12/13 04:36:28;;;;;;;10.23;8.50;;;;;;;9.34;100.00;102240.75;5075123;28;20056;-57
2021/12/13 04:38:59;;;;;;;9.63;7.65;;;;;;;9.65;100.00;102312.44;5075153;28;20032;-52
2021/12/13 04:41:31;;;;;;;;;;;;;;;9.67;100.00;102307.16;5075398;28;20028;-56
2021/12/13 04:44:06;;;;;;;11.95;7.88;;;;;;;9.68;100.00;102307.19;5074002;28;19919;-55
2021/12/13 04:46:33;;;;;;;7.80;6.85;;;;;;;9.67;100.00;102315.94;5075137;28;20024;-56
2021/12/13 04:49:03;;;;;;;9.52;7.20;;;;;;;9.65;100.00;102301.06;5057020;28;20044;-51
2021/12/13 04:51:41;;;;;;;8.25;7.03;;;;;;;9.61;100.00;102314.22;5056241;28;20486;-55
2021/12/13 04:54:07;;;;;;;8.98;6.95;;;;;;;9.59;100.00;102294.97;5074746;28;20135;-54
2021/12/13 04:56:33;;;;;;;10.68;7.45;;;;;;;9.58;100.00;102315.97;5056994;28;20102;-57
2021/12/13 04:59:00;;;;;;;9.85;6.68;;;;;;;9.57;100.00;102309.00;5074485;28;20040;-54
2021/12/13 05:01:26;;;;;;;10.90;6.97;;;;;;;9.56;100.00;102312.50;5074603;28;20040;-56
2021/12/13 05:03:59;;;;;;;8.48;6.40;;;;;;;9.22;100.00;102247.84;5073367;28;20476;-55
2021/12/13 05:06:28;;;;;;;9.07;6.00;;;;;;;9.23;100.00;102247.81;5056548;28;20029;-56
2021/12/13 05:08:58;;;;;;;7.97;5.70;;;;;;;9.60;100.00;102315.09;5074862;28;20036;-53
2021/12/13 05:11:28;;;;;;;8.70;5.80;;;;;;;9.46;100.00;102293.25;5074710;28;20024;-53
2021/12/13 05:13:55;;;;;;;12.88;5.97;;;;;;;9.28;100.00;102255.69;5074459;28;20071;-57
2021/12/13 05:16:39;;;;;;;8.98;5.60;;;;;;;9.66;100.00;102319.44;5074505;28;20036;-60
2021/12/13 05:19:07;;;;;;;7.53;5.57;;;;;;;9.65;100.00;102320.34;5074252;28;20094;-52
2021/12/13 05:21:40;;;;;;;8.98;5.53;;;;;;;9.68;100.00;102329.97;5074517;28;20039;-58
2021/12/13 05:24:13;;;;;;;7.43;5.55;;;;;;;9.64;100.00;102321.22;5074622;28;20024;-55
2021/12/13 05:26:38;;;;;;;5.70;5.03;;;;;;;9.65;100.00;102324.72;5074265;28;20055;-55
2021/12/13 05:29:06;;;;;;;8.10;5.13;;;;;;;9.70;100.00;102330.81;5074476;28;20037;-56
2021/12/13 05:31:32;;;;;;;10.63;5.18;;;;;;;9.66;100.00;102331.75;5073971;28;20028;-56
2021/12/13 05:34:03;;;;;;;6.80;5.00;;;;;;;9.70;100.00;102333.44;5074126;28;20040;-57
2021/12/13 05:36:32;;;;;;;10.02;5.05;;;;;;;9.69;100.00;102323.84;5072768;28;20508;-55
2021/12/13 05:39:13;;;;;;;8.13;4.85;;;;;;;9.68;100.00;102322.06;5073985;28;20037;-55
2021/12/13 05:41:40;;;;;;;6.18;4.65;;;;;;;9.71;100.00;102329.94;5073859;28;20021;-54
2021/12/13 05:44:10;;;;;;;8.88;5.38;;;;;;;9.73;100.00;102315.91;5073871;28;20032;-55
2021/12/13 05:46:44;;;;;;;5.95;4.75;;;;;;;9.63;100.00;102317.69;5073956;28;20074;-53
2021/12/13 05:49:21;;;;;;;6.18;5.15;;;;;;;9.65;100.00;102328.22;5073750;28;20031;-55
2021/12/13 05:51:51;;;;;;;8.90;5.78;;;;;;;9.49;100.00;102309.00;5073746;28;20052;-55
2021/12/13 05:54:29;;;;;;;7.45;6.07;;;;;;;9.54;100.00;102335.31;5073535;28;20044;-54
2021/12/13 05:56:59;;;;;;;8.30;6.07;;;;;;;9.50;100.00;102339.69;5055810;28;20033;-57
2021/12/13 05:59:26;;;;;;;10.10;6.70;;;;;;;9.50;100.00;102336.19;5055593;28;20036;-57
2021/12/13 06:02:19;;;;;;;9.73;6.80;;;;;;;9.48;100.00;102330.06;5073594;28;20388;-57
2021/12/13 06:05:07;;;;;;;10.88;6.65;;;;;;;9.31;100.00;102295.09;5051113;28;20041;-53
2021/12/13 06:07:35;;;;;;;9.15;6.97;;;;;;;9.46;100.00;102337.06;5073540;28;20076;-58
2021/12/13 06:10:04;;;;;;;8.05;7.05;;;;;;;9.43;100.00;102335.31;5072782;28;20468;-54
2021/12/13 06:12:51;;;;;;;9.27;6.70;;;;;;;9.43;100.00;102330.06;5072511;28;20472;-55
2021/12/13 06:15:16;;;;;;;7.10;6.03;;;;;;;9.45;100.00;102330.97;5072897;28;20499;-58
2021/12/13 06:17:49;;;;;;;7.30;6.40;;;;;;;9.44;100.00;102333.56;5073072;28;20029;-57
2021/12/13 06:20:22;;;;;;;9.45;7.40;;;;;;;9.30;100.00;102312.63;5055084;28;20293;-55
2021/12/13 06:22:48;;;;;;;7.85;6.50;;;;;;;9.23;100.00;102303.00;5072188;28;20082;-57
2021/12/13 06:25:19;;;;;;;8.68;7.07;;;;;;;9.35;100.00;102331.84;5072863;28;20024;-57
2021/12/13 06:27:55;;;;;;;7.32;6.63;;;;;;;9.42;100.00;102346.75;5054958;28;20038;-55
2021/12/13 06:30:24;;;;;;;8.75;6.50;;;;;;;9.38;100.00;102331.84;5073021;28;20132;-51
2021/12/13 06:32:57;;;;;;;9.05;7.13;;;;;;;9.04;100.00;102267.19;5072875;28;20034;-56
2021/12/13 06:35:34;;;;;;;11.70;7.43;;;;;;;9.25;100.00;102303.00;5072997;28;20040;-54
2021/12/13 06:38:19;;;;;;;9.05;7.38;;;;;;;9.40;100.00;102331.81;5072446;28;20044;-56
2021/12/13 06:40:50;;;;;;;9.65;8.07;;;;;;;9.40;100.00;102344.97;5072750;28;20108;-55
2021/12/13 06:43:31;;;;;;;9.82;8.23;;;;;;;9.36;100.00;102353.75;5071596;28;20388;-51
2021/12/13 06:45:59;;;;;;;11.43;8.43;;;;;;;9.35;100.00;102341.50;5072582;28;20035;-56
2021/12/13 06:48:36;;;;;;;10.23;8.77;;;;;;;9.24;100.00;102322.25;5072452;28;20039;-56
2021/12/13 06:51:03;;;;;;;13.27;9.75;;;;;;;8.97;100.00;102282.06;5072543;28;20440;-53
2021/12/13 06:53:28;;;;;;;11.23;9.23;;;;;;;9.32;100.00;102337.13;5072638;28;20075;-53
2021/12/13 06:55:54;;;;;;;12.80;9.68;;;;;;;9.20;100.00;102317.88;5072784;28;20065;-54
2021/12/13 06:58:28;;;;;;;11.90;9.60;;;;;;;9.36;100.00;102349.38;5072509;28;20043;-55
2021/12/13 07:00:57;;;;;;;13.85;10.68;;;;;;;9.05;100.00;102284.66;5072321;28;20028;-53
2021/12/13 07:03:32;;;;;;;12.77;11.25;;;;;;;9.08;100.00;102299.56;5072361;28;20036;-53
2021/12/13 07:05:59;;;;;;;15.88;12.07;;;;;;;9.02;100.00;102303.94;5054483;28;20501;-52
2021/12/13 07:08:27;;;;;;;21.48;12.43;;;;;;;8.99;100.00;102295.19;5072166;28;20082;-57
2021/12/13 07:10:53;;;;;;;15.00;12.80;;;;;;;9.34;100.00;102380.03;5072540;28;20403;-52
2021/12/13 07:13:37;;;;;;;14.63;13.05;;;;;;;9.30;100.00;102359.91;5072198;28;20039;-55
2021/12/13 07:16:13;;;;;;;16.48;13.38;;;;;;;9.00;100.00;102312.69;5072212;28;20543;-54
2021/12/13 07:18:55;;;;;;;21.33;13.30;;;;;;;9.28;100.00;102363.44;5054613;28;20040;-54
2021/12/13 07:21:29;;;;;;;16.27;12.68;;;;;;;8.98;100.00;102303.97;5072218;28;20442;-54
2021/12/13 07:23:57;;;;;;;14.02;12.45;;;;;;;9.36;100.00;102378.28;5054075;28;20081;-54
2021/12/13 07:27:15;;;;;;;16.90;12.00;;;;;;;9.37;100.00;102374.75;5072177;28;20506;-59
2021/12/13 07:29:45;;;;;;;15.73;12.40;;;;;;;9.35;100.00;102373.91;5027237;28;20129;-53
2021/12/13 07:32:16;;;;;;;18.52;13.63;;;;;;;9.32;100.00;102367.78;5071788;28;20036;-56
2021/12/13 07:34:48;;;;;;;19.38;14.30;;;;;;;9.37;100.00;102384.44;5072114;28;20067;-56
2021/12/13 07:37:14;;;;;;;20.63;14.82;;;;;;;9.37;100.00;102387.06;5072065;28;20040;-55
2021/12/13 07:39:40;;;;;;;20.40;14.60;;;;;;;9.37;100.00;102400.19;5072113;28;20032;-59
2021/12/13 07:42:09;;;;;;;18.25;13.55;;;;;;;9.38;100.00;102405.44;5053989;28;20035;-50
2021/12/13 07:44:35;;;;;;;19.42;14.93;;;;;;;9.40;100.00;102397.53;5071890;28;20033;-54
2021/12/13 07:47:05;;;;;;;17.15;14.07;;;;;;;9.38;100.00;102389.66;5071977;28;20028;-55
2021/12/13 07:49:36;;;;;;;20.00;13.95;;;;;;;9.36;100.00;102399.31;5071890;28;20136;-57
2021/12/13 07:52:04;;;;;;;20.77;15.10;;;;;;;9.40;100.00;102390.53;5071886;28;20032;-56
2021/12/13 07:54:38;;;;;;;20.40;14.65;;;;;;;9.42;100.00;102406.31;5071755;28;20033;-54
2021/12/13 07:57:05;;;;;;;18.05;14.05;;;;;;;9.43;100.00;102408.03;5053644;28;20037;-55
2021/12/13 07:59:37;;;;;;;16.17;13.75;;;;;;;9.11;100.00;102338.97;5053590;28;20139;-55
2021/12/13 08:02:08;;;;;;;18.95;14.20;;;;;;;9.04;100.00;102341.59;5071595;28;20104;-55
2021/12/13 08:04:36;;;;;;;19.77;14.02;;;;;;;9.44;100.00;102400.16;5071472;28;20104;-54
2021/12/13 08:07:17;;;;;;;16.67;13.85;;;;;;;9.47;100.00;102388.75;5071809;28;20026;-55
2021/12/13 08:09:44;;;;;;;;;;;;;;;9.50;100.00;102396.63;5072241;28;20025;-58
2021/12/13 08:12:20;;;;;;;17.17;13.32;;;;;;;9.48;100.00;102374.75;5071722;28;19913;-56
2021/12/13 08:14:49;;;;;;;17.25;12.45;;;;;;;9.53;100.00;102404.50;5071587;28;20067;-55
2021/12/13 08:17:19;;;;;;;14.30;12.75;;;;;;;9.48;100.00;102386.16;5071876;28;20043;-53
2021/12/13 08:19:53;;;;;;;15.90;12.45;;;;;;;9.54;100.00;102408.91;5053816;28;20077;-56
2021/12/13 08:22:19;;;;;;;16.90;13.75;;;;;;;9.22;100.00;102345.06;5071420;28;20077;-58
2021/12/13 08:24:58;;;;;;;17.10;13.40;;;;;;;9.16;100.00;102345.94;5071490;28;20033;-57
2021/12/13 08:27:30;;;;;;;17.38;13.52;;;;;;;9.51;100.00;102393.13;5055338;28;20162;-56
2021/12/13 08:30:19;;;;;;;17.35;12.60;;;;;;;9.52;100.00;102394.88;5073806;28;20036;-57
2021/12/13 08:32:56;;;;;;;17.88;13.27;;;;;;;9.52;100.00;102398.38;5074587;28;20055;-55
2021/12/13 08:35:22;;;;;;;16.77;12.68;;;;;;;9.53;100.00;102397.50;5074482;28;20040;-56
2021/12/13 08:37:54;;;;;;;17.70;12.80;;;;;;;9.54;100.00;102399.22;5036873;28;20056;-53
2021/12/13 08:40:24;;;;;;;16.95;12.77;;;;;;;9.57;100.00;102403.63;5053548;28;20033;-54
2021/12/13 08:42:51;;;;;;;17.98;13.77;;;;;;;9.56;100.00;102408.00;5053532;28;20036;-57
2021/12/13 08:45:30;;;;;;;16.30;12.90;;;;;;;9.51;100.00;102401.91;5054438;28;20033;-57
2021/12/13 08:48:03;;;;;;;16.75;12.43;;;;;;;9.57;100.00;102407.13;5054901;28;20029;-55
2021/12/13 08:50:29;;;;;;;18.75;13.07;;;;;;;9.62;100.00;102428.16;5054567;28;20207;-54
2021/12/13 08:53:01;;;;;;;18.05;12.10;;;;;;;9.59;100.00;102415.88;5054570;28;20059;-58
2021/12/13 08:55:31;;;;;;;18.40;12.30;;;;;;;9.67;100.00;102431.63;5053210;28;20079;-57
2021/12/13 08:58:17;;;;;;;16.10;12.90;;;;;;;9.50;100.00;102405.41;5054858;28;20028;-57
2021/12/13 09:00:59;;;;;;;17.55;13.07;;;;;;;9.80;100.00;102454.38;5055017;28;20024;-57
2021/12/13 09:03:33;;;;;;;17.92;12.77;;;;;;;9.86;100.00;102456.13;5053274;28;20103;-55
2021/12/13 09:06:17;;;;;;;16.42;13.40;;;;;;;9.85;100.00;102446.47;5053864;28;20025;-53
2021/12/13 09:08:46;;;;;;;16.98;12.80;;;;;;;9.88;100.00;102449.09;5053448;28;20064;-57
2021/12/13 09:11:27;;;;;;;19.98;14.13;;;;;;;9.89;100.00;102470.13;5053548;28;20028;-56
2021/12/13 09:13:58;;;;;;;17.17;13.48;;;;;;;9.66;100.00;102413.25;5053604;28;20142;-59
2021/12/13 09:16:43;;;;;;;15.23;13.18;;;;;;;9.79;100.00;102441.22;5053429;28;20167;-56
2021/12/13 09:19:11;;;;;;;20.95;13.18;;;;;;;9.94;100.00;102484.13;5053830;28;20396;-55
2021/12/13 09:21:57;;;;;;;16.52;13.75;;;;;;;9.95;100.00;102491.13;5053761;28;20037;-55
2021/12/13 09:24:42;;;;;;;16.58;13.18;;;;;;;9.98;100.00;102485.84;5053491;28;20029;-55
2021/12/13 09:27:30;;;;;;;19.80;13.85;;;;;;;9.97;100.00;102491.13;5053207;28;20029;-58
2021/12/13 09:30:24;;;;;;;20.42;13.77;;;;;;;9.95;100.00;102482.38;5043333;28;20080;-57
2021/12/13 09:32:58;;;;;;;17.55;14.25;;;;;;;9.96;100.00;102490.25;5051787;28;20036;-58
2021/12/13 09:35:39;;;;;;;21.00;14.98;;;;;;;9.93;100.00;102484.13;5053349;28;20029;-57
2021/12/13 09:38:17;;;;;;;18.20;14.43;;;;;;;10.02;100.00;102500.75;5072278;28;20514;-58
2021/12/13 09:40:47;;;;;;;21.48;14.00;;;;;;;9.68;100.00;102422.00;5073204;28;20362;-54
2021/12/13 09:43:13;;;;;;;18.38;14.35;;;;;;;10.06;100.00;102501.63;5072713;28;20139;-57
2021/12/13 09:45:43;;;;;;;19.90;14.98;;;;;;;9.85;100.00;102443.84;5054926;28;20132;-59
2021/12/13 09:48:20;;;;;;;17.88;14.27;;;;;;;10.21;100.00;102477.91;5072670;28;20390;-54
2021/12/13 09:50:48;;;;;;;20.38;15.25;;;;;;;9.96;100.00;102440.28;5054981;28;20124;-57
2021/12/13 09:53:14;;;;;;;20.45;13.88;;;;;;;9.95;100.00;102442.94;5072471;28;20048;-57
2021/12/13 09:55:43;;;;;;;18.45;14.15;;;;;;;10.30;100.00;102512.09;5072799;28;20021;-56
2021/12/13 09:58:13;;;;;;;19.20;13.85;;;;;;;10.02;100.00;102474.44;5071405;28;20076;-55
2021/12/13 10:00:48;;;;;;;22.92;15.55;;;;;;;10.32;100.00;102512.06;5073086;28;20495;-54
2021/12/13 10:03:33;;;;;;;20.98;14.02;;;;;;;10.39;100.00;102503.28;5072696;28;20036;-57
2021/12/13 10:06:04;;;;;;;24.40;13.90;;;;;;;10.11;100.00;102450.72;5073293;28;20226;-54
2021/12/13 10:08:52;;;;;;;23.00;12.48;;;;;;;10.46;100.00;102504.97;5072973;28;20028;-59
2021/12/13 10:11:26;;;;;;;18.15;12.90;;;;;;;10.42;100.00;102496.22;5055286;28;20028;-59
2021/12/13 10:13:52;;;;;;;17.48;12.80;;;;;;;10.20;100.00;102457.75;5073069;28;20028;-52
2021/12/13 10:16:23;;;;;;;14.93;13.10;;;;;;;10.42;100.00;102498.84;5073188;28;20066;-56
2021/12/13 10:18:49;;;;;;;;;;;;;;;10.57;100.00;102516.31;5072498;28;20032;-56
2021/12/13 10:21:19;;;;;;;21.92;13.90;;;;;;;10.48;100.00;102487.41;5073164;28;20364;-57
2021/12/13 10:23:48;;;;;;;20.88;14.73;;;;;;;10.54;100.00;102506.66;5073243;28;20032;-52
2021/12/13 10:26:14;;;;;;;17.42;14.27;;;;;;;10.45;100.00;102487.44;5071960;28;20039;-58
2021/12/13 10:28:53;;;;;;;19.00;12.95;;;;;;;10.58;100.00;102508.41;5072933;28;20404;-57
2021/12/13 10:31:25;;;;;;;18.08;13.93;;;;;;;10.56;100.00;102509.31;5072741;28;20029;-56
2021/12/13 10:33:50;;;;;;;16.95;13.68;;;;;;;10.53;100.00;102511.97;5073038;28;20028;-59
2021/12/13 10:36:17;;;;;;;19.77;13.57;;;;;;;10.32;100.00;102462.94;5071549;28;20072;-58
2021/12/13 10:38:50;;;;;;;17.58;12.45;;;;;;;10.60;100.00;102500.50;5072944;28;20129;-56
2021/12/13 10:41:32;;;;;;;19.17;14.15;;;;;;;10.69;100.00;102508.34;5072702;28;20119;-57
2021/12/13 10:44:02;;;;;;;17.70;14.00;;;;;;;10.43;100.00;102455.84;5072815;28;20384;-56
2021/12/13 10:46:42;;;;;;;20.33;14.25;;;;;;;10.74;100.00;102498.63;5072953;28;20128;-55
2021/12/13 10:49:15;;;;;;;18.77;13.93;;;;;;;10.54;100.00;102474.19;5072305;28;20110;-56
2021/12/13 10:51:44;;;;;;;16.77;13.10;;;;;;;10.51;100.00;102453.16;5072639;28;20032;-57
2021/12/13 10:54:15;;;;;;;14.68;12.02;;;;;;;10.80;100.00;102489.84;5072394;28;20043;-59
2021/12/13 10:56:47;;;;;;;18.63;13.75;;;;;;;10.88;100.00;102506.47;5071624;28;20316;-53
2021/12/13 10:59:17;;;;;;;19.42;13.88;;;;;;;10.65;100.00;102457.44;5072651;28;20441;-56
2021/12/13 11:01:46;;;;;;;17.63;13.18;;;;;;;11.00;100.00;102504.63;5072502;28;20071;-54
2021/12/13 11:04:23;;;;;;;20.42;14.63;;;;;;;11.03;100.00;102509.00;5072229;28;20024;-56
2021/12/13 11:06:49;;;;;;;19.38;13.75;;;;;;;10.79;100.00;102461.75;5072356;28;20040;-52
2021/12/13 11:09:21;;;;;;;18.27;13.25;;;;;;;11.08;100.00;102504.56;5072298;28;20426;-54
2021/12/13 11:11:53;;;;;;;16.52;12.85;;;;;;;10.74;100.00;102457.38;5072330;28;20564;-59
2021/12/13 11:14:21;;;;;;;19.48;12.98;;;;;;;10.70;100.00;102445.13;5072181;28;20063;-60
2021/12/13 11:16:54;;;;;;;18.85;14.50;;;;;;;10.68;100.00;102449.53;5054603;28;20078;-55
2021/12/13 11:19:22;;;;;;;20.40;14.20;;;;;;;11.04;100.00;102506.34;5072162;28;20396;-56
2021/12/13 11:21:49;;;;;;;20.83;14.20;;;;;;;11.03;100.00;102507.22;5072560;28;20059;-56
2021/12/13 11:24:19;;;;;;;19.55;14.52;;;;;;;10.94;100.00;102494.13;5072264;28;20036;-58
2021/12/13 11:26:47;;;;;;;17.50;13.43;;;;;;;10.95;100.00;102487.97;5072633;28;20024;-53
2021/12/13 11:29:15;;;;;;;17.00;13.18;;;;;;;10.95;100.00;102492.34;5072117;28;20080;-58
2021/12/13 11:31:52;;;;;;;17.17;13.48;;;;;;;10.64;100.00;102446.94;5054549;28;20032;-58
2021/12/13 11:34:46;;;;;;;17.10;13.52;;;;;;;10.86;100.00;102501.19;5072273;28;20032;-55
2021/12/13 11:37:33;;;;;;;17.63;13.10;;;;;;;10.81;100.00;102510.91;5048093;28;20460;-56
2021/12/13 11:40:20;;;;;;;19.58;14.23;;;;;;;10.78;100.00;102517.94;5072005;28;20038;-56
2021/12/13 11:43:10;;;;;;;20.85;14.98;;;;;;;10.80;100.00;102503.88;5070448;28;20133;-58
2021/12/13 11:45:46;;;;;;;17.15;13.63;;;;;;;10.66;100.00;102488.16;5070069;28;20143;-57
2021/12/13 11:48:32;;;;;;;23.30;14.45;;;;;;;10.81;100.00;102517.91;5053075;28;20399;-56
2021/12/13 11:51:16;;;;;;;18.80;14.00;;;;;;;10.80;100.00;102497.75;5071462;28;20111;-58